createdAt,value
2023-04-16T00:01:10.238Z,32.31
2023-04-16T00:06:13.381Z,32.27
2023-04-16T00:11:16.382Z,32.19
2023-04-16T00:16:21.578Z,32.50
2023-04-16T00:21:24.776Z,32.33
2023-04-16T00:26:29.014Z,32.23
2023-04-16T00:31:34.705Z,32.46
2023-04-16T00:36:37.557Z,32.23
2023-04-16T00:41:40.355Z,32.37
2023-04-16T00:46:45.572Z,32.51
2023-04-16T00:51:49.059Z,32.40
2023-04-16T00:56:52.675Z,32.57
2023-04-16T01:01:56.892Z,32.43
2023-04-16T01:06:59.829Z,32.60
2023-04-16T01:12:03.504Z,32.42
2023-04-16T01:17:07.641Z,32.58
2023-04-16T01:22:11.821Z,32.43
2023-04-16T01:27:14.672Z,32.34
2023-04-16T01:32:18.038Z,32.50
2023-04-16T01:37:22.186Z,32.42
2023-04-16T01:42:25.147Z,32.53
2023-04-16T01:47:28.117Z,32.45
2023-04-16T01:52:32.403Z,32.52
2023-04-16T01:57:35.562Z,32.55
2023-04-16T02:02:38.610Z,32.59
2023-04-16T02:07:42.900Z,32.39
2023-04-16T02:12:45.760Z,32.44
2023-04-16T02:17:51.463Z,32.57
2023-04-16T02:22:55.720Z,32.61
2023-04-16T02:27:58.570Z,32.36
2023-04-16T02:33:03.675Z,32.44
2023-04-16T02:38:08.771Z,32.64
2023-04-16T02:43:12.046Z,32.53
2023-04-16T02:48:14.974Z,32.37
2023-04-16T02:53:19.137Z,32.22
2023-04-16T02:58:22.525Z,32.61
2023-04-16T03:03:25.417Z,32.50
2023-04-16T03:08:29.733Z,32.40
2023-04-16T03:13:32.547Z,32.50
2023-04-16T03:18:35.512Z,32.46
2023-04-16T03:23:39.697Z,32.44
2023-04-16T03:28:42.521Z,32.45
2023-04-16T03:33:45.754Z,32.48
2023-04-16T03:38:49.939Z,32.66
2023-04-16T03:43:53.891Z,32.35
2023-04-16T03:48:56.952Z,32.50
2023-04-16T03:54:01.090Z,32.37
2023-04-16T03:59:04.012Z,32.51
2023-04-16T04:04:07.104Z,32.64
2023-04-16T04:09:11.639Z,32.35
2023-04-16T04:14:14.570Z,32.40
2023-04-16T04:19:17.354Z,32.63
2023-04-16T04:24:21.636Z,32.54
2023-04-16T04:29:24.453Z,32.50
2023-04-16T04:34:27.696Z,32.48
2023-04-16T04:39:31.957Z,32.47
2023-04-16T04:44:34.784Z,32.43
2023-04-16T04:49:37.733Z,32.63
2023-04-16T04:54:42.096Z,32.42
2023-04-16T04:59:44.976Z,32.31
2023-04-16T05:04:47.926Z,32.52
2023-04-16T05:09:52.120Z,32.50
2023-04-16T05:14:54.958Z,32.42
2023-04-16T05:19:57.945Z,32.38
2023-04-16T05:25:02.301Z,32.51
2023-04-16T05:30:05.814Z,32.42
2023-04-16T05:35:09.601Z,32.55
2023-04-16T05:40:15.242Z,32.53
2023-04-16T05:45:19.312Z,32.52
2023-04-16T05:50:22.299Z,32.38
2023-04-16T05:55:26.451Z,32.61
2023-04-16T06:00:29.268Z,32.30
2023-04-16T06:05:32.235Z,32.37
2023-04-16T06:10:36.476Z,32.41
2023-04-16T06:15:39.405Z,32.22
2023-04-16T06:20:42.272Z,32.41
2023-04-16T06:25:46.456Z,32.31
2023-04-16T06:30:49.386Z,32.31
2023-04-16T06:35:52.258Z,32.18
2023-04-16T06:40:56.546Z,32.26
2023-04-16T06:46:00.056Z,32.07
2023-04-16T06:51:04.932Z,32.15
2023-04-16T06:56:09.474Z,32.18
2023-04-16T07:01:12.440Z,32.28
2023-04-16T07:06:15.324Z,32.12
2023-04-16T07:11:19.633Z,32.21
2023-04-16T07:16:22.499Z,32.22
2023-04-16T07:21:26.173Z,32.26
2023-04-16T07:26:30.372Z,32.28
2023-04-16T07:31:33.475Z,32.21
2023-04-16T07:36:36.350Z,32.06
2023-04-16T07:41:41.434Z,32.39
2023-04-16T07:46:47.530Z,32.34
2023-04-16T07:51:50.760Z,32.27
2023-04-16T07:56:54.953Z,32.51
2023-04-16T08:01:58.022Z,32.43
2023-04-16T08:07:00.877Z,32.47
2023-04-16T08:12:05.560Z,32.29
2023-04-16T08:17:08.484Z,32.20
2023-04-16T08:22:11.708Z,32.18
2023-04-16T08:27:19.939Z,32.36
2023-04-16T08:32:23.210Z,32.27
2023-04-16T08:37:26.306Z,32.11
2023-04-16T08:42:33.124Z,32.01
2023-04-16T08:47:37.163Z,31.97
2023-04-16T08:52:45.878Z,31.88
2023-04-16T08:57:53.817Z,31.89
2023-04-16T09:02:56.747Z,32.00
2023-04-16T09:07:59.793Z,32.01
2023-04-16T09:13:03.995Z,31.84
2023-04-16T09:18:06.821Z,32.16
2023-04-16T09:23:10.241Z,32.04
2023-04-16T09:28:14.432Z,31.99
2023-04-16T09:33:22.228Z,32.09
2023-04-16T09:38:26.573Z,32.03
2023-04-16T09:43:31.223Z,31.81
2023-04-16T09:48:34.859Z,31.85
2023-04-16T09:53:38.215Z,31.77
2023-04-16T09:58:42.582Z,31.83
2023-04-16T10:03:51.136Z,31.75
2023-04-16T10:08:56.934Z,31.56
2023-04-16T10:14:01.409Z,31.65
2023-04-16T10:19:04.428Z,31.53
2023-04-16T10:24:08.159Z,31.87
2023-04-16T10:29:12.955Z,31.64
2023-04-16T10:34:16.254Z,31.96
2023-04-16T10:39:20.392Z,31.78
2023-04-16T10:44:26.066Z,31.68
2023-04-16T10:49:29.033Z,31.70
2023-04-16T10:54:32.323Z,31.96
2023-04-16T10:59:37.688Z,31.77
2023-04-16T11:04:43.971Z,31.75
2023-04-16T11:09:52.233Z,31.61
2023-04-16T11:14:59.939Z,31.73
2023-04-16T11:20:02.968Z,31.69
2023-04-16T11:25:07.178Z,31.64
2023-04-16T11:30:12.069Z,31.81
2023-04-16T11:35:16.517Z,31.87
2023-04-16T11:40:20.320Z,31.81
2023-04-16T11:45:25.830Z,31.83
2023-04-16T11:50:30.305Z,31.58
2023-04-16T11:55:33.103Z,31.67
2023-04-16T12:00:37.258Z,31.59
2023-04-16T12:05:41.366Z,31.46
2023-04-16T12:10:54.758Z,31.27
2023-04-16T12:15:58.883Z,31.36
2023-04-16T12:21:05.679Z,31.26
2023-04-16T12:26:10.932Z,31.33
2023-04-16T12:31:15.811Z,31.29
2023-04-16T12:36:19.750Z,31.37
2023-04-16T12:41:22.705Z,31.41
2023-04-16T12:46:26.857Z,31.44
2023-04-16T12:51:29.735Z,31.54
2023-04-16T12:56:32.909Z,31.51
2023-04-16T13:01:38.076Z,31.52
2023-04-16T13:06:41.215Z,31.59
2023-04-16T13:11:44.036Z,31.46
2023-04-16T13:16:48.448Z,31.45
2023-04-16T13:21:52.124Z,31.36
2023-04-16T13:26:56.315Z,31.24
2023-04-16T13:32:00.533Z,31.14
2023-04-16T13:37:03.390Z,31.07
2023-04-16T13:42:06.368Z,31.22
2023-04-16T13:47:11.218Z,30.98
2023-04-16T13:52:14.064Z,30.98
2023-04-16T13:57:18.072Z,31.13
2023-04-16T14:02:23.255Z,31.05
2023-04-16T14:07:27.197Z,30.91
2023-04-16T14:12:31.774Z,31.02
2023-04-16T14:17:36.166Z,30.99
2023-04-16T14:22:39.589Z,30.93
2023-04-16T14:27:42.418Z,31.09
2023-04-16T14:32:46.581Z,30.88
2023-04-16T14:37:49.594Z,30.85
2023-04-16T14:42:52.387Z,31.08
2023-04-16T14:47:57.039Z,29.60
2023-04-16T14:53:00.126Z,30.50
2023-04-16T14:58:02.980Z,30.92
2023-04-16T15:03:07.627Z,30.94
2023-04-16T15:08:10.501Z,30.79
2023-04-16T15:13:13.470Z,31.11
2023-04-16T15:18:17.901Z,31.06
2023-04-16T15:23:20.922Z,31.23
2023-04-16T15:28:24.410Z,31.23
2023-04-16T15:33:28.649Z,31.46
2023-04-16T15:38:31.701Z,31.24
2023-04-16T15:43:34.616Z,31.32
2023-04-16T15:48:38.853Z,31.35
2023-04-16T15:53:41.854Z,31.41
2023-04-16T15:58:44.859Z,31.50
2023-04-16T16:03:49.239Z,31.61
2023-04-16T16:08:52.432Z,31.68
2023-04-16T16:13:55.347Z,31.77
2023-04-16T16:18:59.498Z,31.63
2023-04-16T16:24:02.406Z,31.53
2023-04-16T16:29:07.157Z,31.73
2023-04-16T16:34:19.915Z,31.70
2023-04-16T16:39:25.289Z,31.59
2023-04-16T16:44:28.305Z,31.52
2023-04-16T16:49:32.561Z,31.47
2023-04-16T16:54:35.410Z,31.40
2023-04-16T16:59:38.245Z,31.46
2023-04-16T17:04:42.594Z,31.41
2023-04-16T17:09:46.141Z,31.54
2023-04-16T17:14:51.160Z,31.46
2023-04-16T17:19:55.440Z,31.54
2023-04-16T17:24:58.262Z,31.62
2023-04-16T17:30:03.157Z,31.70
2023-04-16T17:35:09.420Z,31.91
2023-04-16T17:40:14.452Z,31.93
2023-04-16T17:45:17.284Z,32.05
2023-04-16T17:50:21.503Z,32.05
2023-04-16T17:55:25.128Z,32.20
2023-04-16T18:00:29.206Z,32.16
2023-04-16T18:05:35.618Z,32.19
2023-04-16T18:10:41.243Z,32.14
2023-04-16T18:15:44.103Z,32.10
2023-04-16T18:20:48.318Z,32.33
2023-04-16T18:25:51.300Z,32.13
2023-04-16T18:30:58.712Z,32.16
2023-04-16T18:36:03.768Z,32.34
2023-04-16T18:41:06.663Z,32.17
2023-04-16T18:46:09.526Z,32.37
2023-04-16T18:51:15.924Z,32.18
2023-04-16T18:56:19.430Z,32.40
2023-04-16T19:01:22.335Z,32.33
2023-04-16T19:06:27.555Z,32.24
2023-04-16T19:11:30.478Z,32.20
2023-04-16T19:16:33.377Z,32.31
2023-04-16T19:21:37.522Z,32.28
2023-04-16T19:26:40.423Z,32.33
2023-04-16T19:31:43.216Z,32.22
2023-04-16T19:36:47.442Z,32.38
2023-04-16T19:41:50.241Z,32.39
2023-04-16T19:46:54.312Z,32.37
2023-04-16T19:51:58.577Z,32.34
2023-04-16T19:57:01.655Z,32.24
2023-04-16T20:02:04.518Z,32.35
2023-04-16T20:07:08.857Z,32.21
2023-04-16T20:12:11.704Z,32.30
2023-04-16T20:17:19.486Z,32.46
2023-04-16T20:22:23.726Z,32.39
2023-04-16T20:27:26.565Z,32.17
2023-04-16T20:32:29.470Z,32.33
2023-04-16T20:37:37.968Z,32.19
2023-04-16T20:42:45.977Z,32.21
2023-04-16T20:47:49.791Z,32.26
2023-04-16T20:52:54.076Z,32.32
2023-04-16T20:57:56.899Z,32.36
2023-04-16T21:02:59.823Z,32.19
2023-04-16T21:08:04.173Z,32.23
2023-04-16T21:13:07.014Z,32.34
2023-04-16T21:18:10.367Z,32.12
2023-04-16T21:23:14.558Z,32.19
2023-04-16T21:28:17.582Z,32.22
2023-04-16T21:33:20.391Z,32.33
2023-04-16T21:38:24.560Z,32.23
2023-04-16T21:43:28.992Z,32.24
2023-04-16T21:48:31.834Z,32.16
2023-04-16T21:53:37.055Z,31.90
2023-04-16T21:58:39.934Z,31.88
2023-04-16T22:03:43.279Z,31.79
2023-04-16T22:08:49.916Z,32.08
2023-04-16T22:13:53.578Z,31.71
2023-04-16T22:18:56.573Z,31.94
2023-04-16T22:24:01.774Z,31.79
2023-04-16T22:29:10.157Z,31.82
2023-04-16T22:34:13.165Z,31.73
2023-04-16T22:39:17.502Z,31.81
2023-04-16T22:44:20.317Z,31.73
2023-04-16T22:49:23.136Z,31.60
2023-04-16T22:54:30.344Z,31.62
2023-04-16T22:59:33.252Z,31.72
2023-04-16T23:04:36.121Z,31.59
2023-04-16T23:09:40.305Z,31.72
2023-04-16T23:14:45.939Z,31.67
2023-04-16T23:19:48.887Z,31.83
2023-04-16T23:24:53.588Z,31.55
2023-04-16T23:29:56.437Z,31.74
2023-04-16T23:34:59.354Z,31.41
2023-04-16T23:40:04.011Z,31.60
2023-04-16T23:45:07.907Z,31.68
2023-04-16T23:50:11.325Z,31.64
2023-04-16T23:55:15.664Z,31.51
